Time;durP1;ratioP1;P1;durP2;ratioP2;P2;SDS_P1;SDS_P2;PMS_P1;PMS_P2;Temp;Humidity;BMP_temperature;BMP_pressure;BME280_temperature;BME280_humidity;BME280_pressure;Samples;Min_cycle;Max_cycle;Signal;HPM_P1;HPM_P2
2021/12/29 00:01:05;;;;;;;38.70;20.30;;;;;;;;;;6157739;23;20269;-72
2021/12/29 00:03:33;;;;;;;34.00;17.33;;;;;;;;;;6157490;23;20551;-71
2021/12/29 00:06:00;;;;;;;33.77;17.83;;;;;;;;;;6157752;23;20181;-70
2021/12/29 00:08:27;;;;;;;34.67;17.67;;;;;;;;;;6157725;23;20185;-71
2021/12/29 00:10:55;;;;;;;31.57;16.90;;;;;;;;;;6157656;23;20677;-71
2021/12/29 00:13:23;;;;;;;43.07;22.20;;;;;;;;;;6157771;23;20264;-71
2021/12/29 00:15:57;;;;;;;155.93;42.00;;;;;;;;;;6157762;23;20192;-70
2021/12/29 00:18:32;;;;;;;41.27;23.93;;;;;;;;;;6157737;23;20170;-70
2021/12/29 00:21:01;;;;;;;38.17;22.17;;;;;;;;;;6157697;23;20177;-70
2021/12/29 00:23:28;;;;;;;109.53;34.60;;;;;;;;;;6157656;23;20182;-71
2021/12/29 00:26:07;;;;;;;47.20;21.47;;;;;;;;;;6166446;23;20177;-71
2021/12/29 00:28:34;;;;;;;38.03;19.83;;;;;;;;;;6157693;23;20169;-71
2021/12/29 00:31:01;;;;;;;38.03;19.80;;;;;;;;;;6156007;23;20212;-71
2021/12/29 00:33:42;;;;;;;43.87;19.80;;;;;;;;;;6167222;23;20180;-70
2021/12/29 00:36:35;;;;;;;37.87;19.87;;;;;;;;;;6133567;23;20185;-71
2021/12/29 00:39:18;;;;;;;40.07;19.90;;;;;;;;;;6157699;23;20170;-71
2021/12/29 00:42:08;;;;;;;47.10;25.57;;;;;;;;;;6157045;23;20205;-70
2021/12/29 00:44:50;;;;;;;65.07;25.50;;;;;;;;;;6157275;23;20169;-71
2021/12/29 00:47:18;;;;;;;50.07;27.33;;;;;;;;;;6157535;23;20240;-71
2021/12/29 00:49:46;;;;;;;35.93;19.80;;;;;;;;;;6157134;23;20692;-71
2021/12/29 00:52:14;;;;;;;42.23;22.13;;;;;;;;;;6156298;23;20571;-71
2021/12/29 00:54:43;;;;;;;41.73;21.70;;;;;;;;;;6157411;23;20239;-71
2021/12/29 00:57:10;;;;;;;40.47;20.93;;;;;;;;;;6157327;23;20232;-71
2021/12/29 00:59:38;;;;;;;38.30;19.87;;;;;;;;;;6157284;23;20185;-71
2021/12/29 01:02:07;;;;;;;40.77;20.40;;;;;;;;;;6157391;23;20181;-71
2021/12/29 01:04:34;;;;;;;39.13;21.37;;;;;;;;;;6157148;23;20189;-71
2021/12/29 01:07:01;;;;;;;33.80;18.80;;;;;;;;;;6157296;23;20173;-70
2021/12/29 01:09:29;;;;;;;39.27;21.07;;;;;;;;;;6157262;23;20188;-69
2021/12/29 01:11:58;;;;;;;47.23;25.93;;;;;;;;;;6157250;23;20205;-70
2021/12/29 01:14:29;;;;;;;104.60;32.53;;;;;;;;;;6156783;23;20573;-69
2021/12/29 01:16:58;;;;;;;50.13;25.53;;;;;;;;;;6157342;23;20240;-69
2021/12/29 01:19:27;;;;;;;41.17;21.47;;;;;;;;;;6157016;23;20213;-65
2021/12/29 01:21:58;;;;;;;52.03;26.37;;;;;;;;;;6156884;23;20583;-70
2021/12/29 01:24:27;;;;;;;59.13;25.40;;;;;;;;;;6157325;23;20248;-66
2021/12/29 01:26:55;;;;;;;49.17;22.97;;;;;;;;;;6156787;23;20216;-70
2021/12/29 01:29:26;;;;;;;48.07;22.80;;;;;;;;;;6157307;23;20181;-70
2021/12/29 01:31:53;;;;;;;44.87;22.53;;;;;;;;;;6155696;23;20511;-70
2021/12/29 01:34:20;;;;;;;48.20;23.50;;;;;;;;;;6157104;23;20185;-70
2021/12/29 01:36:48;;;;;;;43.10;21.50;;;;;;;;;;6156738;23;20629;-69
2021/12/29 01:39:16;;;;;;;50.03;23.83;;;;;;;;;;6156958;23;20181;-71
2021/12/29 01:41:47;;;;;;;53.87;27.83;;;;;;;;;;6157005;23;20181;-69
2021/12/29 01:44:16;;;;;;;104.17;35.17;;;;;;;;;;6155479;23;20170;-70
2021/12/29 01:46:44;;;;;;;65.57;27.77;;;;;;;;;;6156927;23;20182;-70
2021/12/29 01:49:12;;;;;;;41.30;22.40;;;;;;;;;;6156843;23;20182;-70
2021/12/29 01:51:49;;;;;;;41.33;24.87;;;;;;;;;;6156770;23;20208;-69
2021/12/29 01:54:23;;;;;;;43.03;22.57;;;;;;;;;;6156900;23;20179;-70
2021/12/29 01:56:58;;;;;;;38.97;20.53;;;;;;;;;;6156913;23;20176;-70
2021/12/29 01:59:26;;;;;;;42.40;21.47;;;;;;;;;;6156962;23;20169;-71
2021/12/29 02:01:54;;;;;;;36.97;20.63;;;;;;;;;;6156779;23;20252;-69
2021/12/29 02:04:22;;;;;;;37.43;20.20;;;;;;;;;;6156464;23;20209;-70
2021/12/29 02:06:49;;;;;;;37.43;19.83;;;;;;;;;;6155340;23;20185;-70
2021/12/29 02:09:17;;;;;;;36.80;19.07;;;;;;;;;;6156503;23;20224;-71
2021/12/29 02:11:45;;;;;;;62.97;30.73;;;;;;;;;;6156580;23;20205;-70
2021/12/29 02:14:12;;;;;;;126.77;37.60;;;;;;;;;;6156513;23;20181;-70
2021/12/29 02:16:40;;;;;;;87.43;31.93;;;;;;;;;;6156512;23;20182;-71
2021/12/29 02:19:10;;;;;;;41.20;23.60;;;;;;;;;;6156787;23;20260;-71
2021/12/29 02:21:38;;;;;;;38.73;20.53;;;;;;;;;;6156573;23;20244;-71
2021/12/29 02:26:39;;;;;;;41.40;22.93;;;;;;;;;;6156229;23;20209;-70
2021/12/29 02:29:10;;;;;;;41.87;21.50;;;;;;;;;;6156653;23;20181;-66
2021/12/29 02:31:38;;;;;;;39.97;20.87;;;;;;;;;;6156511;23;20189;-66
2021/12/29 02:34:08;;;;;;;41.23;21.07;;;;;;;;;;6156485;23;20181;-69
2021/12/29 02:36:36;;;;;;;43.87;22.20;;;;;;;;;;6156639;23;20508;-69
2021/12/29 02:39:04;;;;;;;42.97;21.87;;;;;;;;;;6156447;23;20186;-66
2021/12/29 02:41:31;;;;;;;51.37;23.10;;;;;;;;;;6156463;23;20181;-66
2021/12/29 02:44:01;;;;;;;89.60;33.00;;;;;;;;;;6156625;23;20192;-70
2021/12/29 02:46:31;;;;;;;88.70;32.17;;;;;;;;;;6156488;23;20232;-71
2021/12/29 02:48:59;;;;;;;45.23;24.90;;;;;;;;;;6156578;23;20178;-71
2021/12/29 02:51:28;;;;;;;40.83;21.87;;;;;;;;;;6156484;23;20511;-71
2021/12/29 02:53:56;;;;;;;57.23;27.30;;;;;;;;;;6156373;23;20188;-71
2021/12/29 02:56:26;;;;;;;59.53;25.63;;;;;;;;;;6156308;23;20185;-71
2021/12/29 02:58:54;;;;;;;42.70;22.50;;;;;;;;;;6156472;23;20180;-71
2021/12/29 03:01:23;;;;;;;45.23;21.10;;;;;;;;;;6155779;23;20185;-70
2021/12/29 03:03:51;;;;;;;41.67;21.30;;;;;;;;;;6156421;23;20182;-68
2021/12/29 03:06:19;;;;;;;44.43;21.80;;;;;;;;;;6155994;23;20205;-65
2021/12/29 03:08:47;;;;;;;41.23;21.40;;;;;;;;;;6156129;23;20255;-70
2021/12/29 03:11:14;;;;;;;47.13;22.67;;;;;;;;;;6156185;23;20185;-67
2021/12/29 03:13:42;;;;;;;65.93;36.10;;;;;;;;;;6156207;23;20182;-70
2021/12/29 03:16:10;;;;;;;60.20;23.87;;;;;;;;;;6157587;23;20549;-69
2021/12/29 03:18:38;;;;;;;69.73;27.83;;;;;;;;;;6158139;23;20185;-70
2021/12/29 03:21:05;;;;;;;42.20;22.20;;;;;;;;;;6158295;23;20318;-70
2021/12/29 03:23:33;;;;;;;50.10;27.23;;;;;;;;;;6156971;23;20244;-70
2021/12/29 03:26:02;;;;;;;87.90;32.53;;;;;;;;;;6158152;23;20210;-70
2021/12/29 03:28:30;;;;;;;49.87;24.63;;;;;;;;;;6158215;23;20170;-70
2021/12/29 03:30:57;;;;;;;45.13;21.73;;;;;;;;;;6158145;23;20185;-71
2021/12/29 03:33:26;;;;;;;42.47;22.50;;;;;;;;;;6157950;23;20207;-70
2021/12/29 03:36:04;;;;;;;38.47;20.73;;;;;;;;;;6157413;23;20192;-70
2021/12/29 03:38:34;;;;;;;43.37;22.07;;;;;;;;;;6158265;23;20227;-70
2021/12/29 03:41:04;;;;;;;35.20;20.07;;;;;;;;;;6157815;23;20169;-71
2021/12/29 03:43:32;;;;;;;47.33;23.07;;;;;;;;;;6158149;23;20186;-70
2021/12/29 03:46:01;;;;;;;105.50;33.77;;;;;;;;;;6157772;23;20185;-68
2021/12/29 03:48:29;;;;;;;60.97;25.80;;;;;;;;;;6158070;23;20182;-71
2021/12/29 03:50:57;;;;;;;54.80;25.97;;;;;;;;;;6157740;23;20182;-69
2021/12/29 03:53:25;;;;;;;40.13;21.77;;;;;;;;;;6157444;23;20565;-71
2021/12/29 03:55:53;;;;;;;44.87;24.00;;;;;;;;;;6158077;23;20186;-71
2021/12/29 03:58:23;;;;;;;50.30;22.57;;;;;;;;;;6157842;23;20188;-70
2021/12/29 04:00:52;;;;;;;39.10;20.77;;;;;;;;;;6156589;23;20293;-70
2021/12/29 04:03:20;;;;;;;45.93;21.20;;;;;;;;;;6157367;23;20630;-69
2021/12/29 04:05:47;;;;;;;42.80;22.03;;;;;;;;;;6157858;23;20216;-70
2021/12/29 04:08:15;;;;;;;44.43;23.13;;;;;;;;;;6157945;23;20185;-70
2021/12/29 04:10:42;;;;;;;42.57;20.53;;;;;;;;;;6157777;23;20315;-70
2021/12/29 04:13:09;;;;;;;39.73;20.43;;;;;;;;;;6157776;23;20209;-65
2021/12/29 04:15:38;;;;;;;39.37;20.23;;;;;;;;;;6157855;23;20175;-65
2021/12/29 04:18:15;;;;;;;48.20;24.03;;;;;;;;;;6158044;23;20174;-67
2021/12/29 04:23:31;;;;;;;37.93;22.60;;;;;;;;;;6157816;23;20257;-69
2021/12/29 04:26:01;;;;;;;48.10;24.33;;;;;;;;;;6157522;23;20169;-66
2021/12/29 04:28:29;;;;;;;67.10;30.57;;;;;;;;;;6157692;23;20170;-70
2021/12/29 04:31:07;;;;;;;46.30;22.83;;;;;;;;;;6157195;23;20643;-70
2021/12/29 04:33:36;;;;;;;46.73;23.37;;;;;;;;;;6157575;23;20203;-70
2021/12/29 04:36:05;;;;;;;45.07;24.03;;;;;;;;;;6156279;23;20182;-70
2021/12/29 04:38:33;;;;;;;43.40;22.53;;;;;;;;;;6157711;23;20201;-69
2021/12/29 04:41:00;;;;;;;49.40;22.77;;;;;;;;;;6157322;23;20182;-70
2021/12/29 04:43:27;;;;;;;45.77;24.00;;;;;;;;;;6157510;23;20184;-70
2021/12/29 04:45:55;;;;;;;50.73;25.60;;;;;;;;;;6157540;23;20180;-71
2021/12/29 04:48:24;;;;;;;81.50;31.73;;;;;;;;;;6157536;23;20181;-71
2021/12/29 04:50:54;;;;;;;81.30;30.10;;;;;;;;;;6157548;23;20265;-70
2021/12/29 04:53:23;;;;;;;72.90;29.97;;;;;;;;;;6155751;23;20201;-70
2021/12/29 04:55:51;;;;;;;66.13;30.57;;;;;;;;;;6157429;23;20256;-72
2021/12/29 04:58:21;;;;;;;46.17;23.93;;;;;;;;;;6157309;23;20200;-69
2021/12/29 05:00:50;;;;;;;73.30;34.60;;;;;;;;;;6156013;23;20216;-69
2021/12/29 05:03:19;;;;;;;52.70;24.07;;;;;;;;;;6154001;23;20181;-69
2021/12/29 05:05:57;;;;;;;57.03;25.50;;;;;;;;;;6155303;23;20555;-70
2021/12/29 05:08:25;;;;;;;44.33;21.90;;;;;;;;;;6156672;23;20196;-73
2021/12/29 05:10:56;;;;;;;51.60;25.00;;;;;;;;;;6156686;23;20181;-73
2021/12/29 05:13:25;;;;;;;51.80;25.13;;;;;;;;;;6156517;23;20198;-72
2021/12/29 05:15:55;;;;;;;48.47;23.47;;;;;;;;;;6155421;23;20490;-71
2021/12/29 05:18:24;;;;;;;47.17;23.40;;;;;;;;;;6154584;23;20188;-71
2021/12/29 05:20:53;;;;;;;50.60;26.03;;;;;;;;;;6155526;23;20188;-70
2021/12/29 05:23:21;;;;;;;57.93;24.80;;;;;;;;;;6156027;23;20181;-69
2021/12/29 05:25:49;;;;;;;69.10;28.30;;;;;;;;;;6156380;23;20181;-72
2021/12/29 05:28:20;;;;;;;51.23;24.83;;;;;;;;;;6155997;23;20547;-72
2021/12/29 05:30:48;;;;;;;62.10;31.23;;;;;;;;;;6166023;23;20169;-72
2021/12/29 05:33:16;;;;;;;68.60;28.53;;;;;;;;;;6155291;23;20205;-71
2021/12/29 05:35:44;;;;;;;70.87;30.13;;;;;;;;;;6156629;23;20205;-68
2021/12/29 05:38:11;;;;;;;58.33;26.83;;;;;;;;;;6156050;23;20181;-71
2021/12/29 05:40:39;;;;;;;54.90;26.20;;;;;;;;;;6156496;23;20207;-69
2021/12/29 05:43:06;;;;;;;50.13;23.57;;;;;;;;;;6156276;23;20185;-71
2021/12/29 05:45:33;;;;;;;49.70;24.00;;;;;;;;;;6156376;23;20197;-72
2021/12/29 05:48:01;;;;;;;46.53;25.40;;;;;;;;;;6154947;23;20613;-70
2021/12/29 05:50:30;;;;;;;56.50;26.87;;;;;;;;;;6155770;23;20530;-70
2021/12/29 05:52:58;;;;;;;58.93;26.07;;;;;;;;;;6155518;23;20206;-71
2021/12/29 05:55:26;;;;;;;71.23;28.03;;;;;;;;;;6156394;23;20684;-72
2021/12/29 05:57:54;;;;;;;50.37;25.10;;;;;;;;;;6156609;23;20190;-72
2021/12/29 06:00:24;;;;;;;47.50;24.50;;;;;;;;;;6156208;23;20181;-72
2021/12/29 06:02:52;;;;;;;47.37;24.40;;;;;;;;;;6156446;23;20182;-72
2021/12/29 06:05:20;;;;;;;56.27;27.87;;;;;;;;;;6156335;23;20220;-70
2021/12/29 06:07:49;;;;;;;57.77;26.70;;;;;;;;;;6155985;23;20503;-68
2021/12/29 06:10:16;;;;;;;59.67;26.17;;;;;;;;;;6156406;23;20182;-71
2021/12/29 06:12:43;;;;;;;47.83;24.70;;;;;;;;;;6156193;23;20205;-70
2021/12/29 06:15:11;;;;;;;44.90;22.43;;;;;;;;;;6156153;23;20181;-72
2021/12/29 06:17:39;;;;;;;48.77;25.57;;;;;;;;;;6155704;23;20540;-73
2021/12/29 06:20:09;;;;;;;55.40;26.30;;;;;;;;;;6156241;23;20181;-74
2021/12/29 06:22:37;;;;;;;46.13;25.07;;;;;;;;;;6165708;23;20535;-73
2021/12/29 06:25:06;;;;;;;68.20;30.50;;;;;;;;;;6156247;23;20181;-72
2021/12/29 06:27:33;;;;;;;50.20;24.00;;;;;;;;;;6155670;23;20291;-73
2021/12/29 06:30:00;;;;;;;55.20;27.20;;;;;;;;;;6154426;23;20576;-72
2021/12/29 06:32:28;;;;;;;57.67;26.60;;;;;;;;;;6153289;23;20197;-72
2021/12/29 06:34:55;;;;;;;67.30;28.47;;;;;;;;;;6155526;23;20526;-72
2021/12/29 06:37:24;;;;;;;58.77;27.53;;;;;;;;;;6155864;23;20181;-70
2021/12/29 06:39:52;;;;;;;56.80;27.20;;;;;;;;;;6155799;23;20208;-71
2021/12/29 06:42:19;;;;;;;54.80;26.43;;;;;;;;;;6155676;23;20236;-72
2021/12/29 06:44:47;;;;;;;59.93;26.37;;;;;;;;;;6153671;23;20204;-71
2021/12/29 06:47:15;;;;;;;61.60;27.13;;;;;;;;;;6153514;23;20506;-70
2021/12/29 06:49:43;;;;;;;45.60;23.90;;;;;;;;;;6153770;23;20184;-75
2021/12/29 06:52:11;;;;;;;66.57;29.80;;;;;;;;;;6151642;23;20248;-75
2021/12/29 06:54:38;;;;;;;57.83;28.87;;;;;;;;;;6152649;23;20182;-74
2021/12/29 06:57:06;;;;;;;72.57;31.13;;;;;;;;;;6155421;23;20256;-74
2021/12/29 06:59:33;;;;;;;61.90;31.17;;;;;;;;;;6154528;23;20181;-72
2021/12/29 07:02:00;;;;;;;61.27;31.97;;;;;;;;;;6154688;23;20658;-77
2021/12/29 07:04:28;;;;;;;89.47;41.03;;;;;;;;;;6155561;23;20201;-74
2021/12/29 07:06:55;;;;;;;91.13;42.23;;;;;;;;;;6155666;23;20188;-75
2021/12/29 07:09:23;;;;;;;105.33;51.07;;;;;;;;;;6155057;23;20188;-63
2021/12/29 07:11:51;;;;;;;66.10;32.60;;;;;;;;;;6154774;23;20181;-72
2021/12/29 07:14:21;;;;;;;62.73;31.33;;;;;;;;;;6156268;23;20205;-70
2021/12/29 07:16:50;;;;;;;66.93;30.83;;;;;;;;;;6156152;23;20182;-72
2021/12/29 07:19:19;;;;;;;66.13;32.30;;;;;;;;;;6155648;23;20212;-74
2021/12/29 07:21:48;;;;;;;111.70;44.20;;;;;;;;;;6155778;23;20617;-75
2021/12/29 07:24:16;;;;;;;88.27;38.40;;;;;;;;;;6155623;23;20197;-73
2021/12/29 07:26:44;;;;;;;80.90;36.40;;;;;;;;;;6155996;23;20777;-74
2021/12/29 07:29:12;;;;;;;76.10;34.60;;;;;;;;;;6155744;23;20576;-70
2021/12/29 07:31:43;;;;;;;55.97;31.17;;;;;;;;;;6153351;23;20170;-76
2021/12/29 07:34:21;;;;;;;332.73;139.20;;;;;;;;;;6165333;23;20192;-68
2021/12/29 07:36:49;;;;;;;265.57;113.93;;;;;;;;;;6155889;23;20181;-77
2021/12/29 07:39:16;;;;;;;187.37;83.53;;;;;;;;;;6151669;23;20182;-62
2021/12/29 07:41:47;;;;;;;244.03;107.60;;;;;;;;;;6128299;23;20189;-78
2021/12/29 07:44:26;;;;;;;353.03;159.87;;;;;;;;;;6154335;23;20208;-73
2021/12/29 07:46:58;;;;;;;306.83;136.97;;;;;;;;;;6163806;23;20193;-67
2021/12/29 07:49:29;;;;;;;603.50;297.57;;;;;;;;;;6160594;23;20173;-73
2021/12/29 07:52:02;;;;;;;399.17;180.70;;;;;;;;;;6155422;23;20181;-73
2021/12/29 07:57:59;;;;;;;183.07;76.53;;;;;;;;;;6093255;23;20190;-67
2021/12/29 08:00:27;;;;;;;247.63;111.60;;;;;;;;;;6106274;23;20191;-67
2021/12/29 08:02:54;;;;;;;187.90;84.47;;;;;;;;;;6098783;23;20182;-68
2021/12/29 08:05:22;;;;;;;122.73;57.00;;;;;;;;;;6098653;23;20233;-67
2021/12/29 08:07:50;;;;;;;237.17;106.33;;;;;;;;;;6098593;23;20187;-67
2021/12/29 08:10:17;;;;;;;78.37;37.47;;;;;;;;;;6097000;23;20262;-68
2021/12/29 08:12:44;;;;;;;95.60;48.67;;;;;;;;;;6098383;23;20199;-67
2021/12/29 08:15:12;;;;;;;89.50;45.30;;;;;;;;;;6098469;23;20262;-68
2021/12/29 08:17:40;;;;;;;69.53;34.67;;;;;;;;;;6096366;23;20546;-68
2021/12/29 08:20:09;;;;;;;66.33;38.97;;;;;;;;;;6093288;23;20230;-68
2021/12/29 08:22:36;;;;;;;66.93;33.77;;;;;;;;;;6097497;23;20265;-67
2021/12/29 08:25:03;;;;;;;57.63;32.93;;;;;;;;;;6097493;23;20214;-68
2021/12/29 08:27:31;;;;;;;73.50;33.53;;;;;;;;;;6098235;23;20198;-67
2021/12/29 08:29:58;;;;;;;79.80;33.43;;;;;;;;;;6092254;23;20206;-68
2021/12/29 08:32:26;;;;;;;62.10;28.87;;;;;;;;;;6097139;23;20258;-68
2021/12/29 08:34:54;;;;;;;56.13;28.23;;;;;;;;;;6097271;23;20206;-68
2021/12/29 08:37:21;;;;;;;99.93;37.73;;;;;;;;;;6097121;23;20213;-70
2021/12/29 08:39:49;;;;;;;88.97;34.00;;;;;;;;;;6119906;23;20234;-68
2021/12/29 08:42:16;;;;;;;65.20;28.30;;;;;;;;;;6096689;23;20211;-68
2021/12/29 08:44:43;;;;;;;56.10;27.67;;;;;;;;;;6096874;23;20278;-72
2021/12/29 08:47:11;;;;;;;56.37;28.33;;;;;;;;;;6097252;23;20633;-69
2021/12/29 08:49:38;;;;;;;53.90;27.07;;;;;;;;;;6097023;23;20571;-68
2021/12/29 08:52:06;;;;;;;62.40;30.00;;;;;;;;;;6097021;23;20342;-67
2021/12/29 08:54:34;;;;;;;57.63;27.53;;;;;;;;;;6097326;23;20225;-68
2021/12/29 08:57:02;;;;;;;55.03;26.17;;;;;;;;;;6095308;23;20218;-67
2021/12/29 08:59:29;;;;;;;88.67;33.80;;;;;;;;;;6096682;23;21086;-68
2021/12/29 09:01:57;;;;;;;59.27;27.20;;;;;;;;;;6097173;23;20211;-68
2021/12/29 09:04:25;;;;;;;60.40;29.60;;;;;;;;;;6097020;23;20685;-68
2021/12/29 09:06:57;;;;;;;84.67;35.70;;;;;;;;;;6095637;23;20207;-68
2021/12/29 09:09:24;;;;;;;74.77;32.73;;;;;;;;;;6097034;23;20616;-68
2021/12/29 09:11:53;;;;;;;65.90;31.40;;;;;;;;;;6096632;23;20218;-68
2021/12/29 09:14:21;;;;;;;58.53;28.53;;;;;;;;;;6094545;23;20234;-68
2021/12/29 09:16:48;;;;;;;64.53;30.63;;;;;;;;;;6096571;23;20207;-68
2021/12/29 09:19:16;;;;;;;64.57;30.33;;;;;;;;;;6096913;23;20286;-68
2021/12/29 09:21:44;;;;;;;57.17;26.40;;;;;;;;;;6096521;23;20701;-69
2021/12/29 09:24:12;;;;;;;67.93;31.10;;;;;;;;;;6096914;23;20263;-69
2021/12/29 09:26:39;;;;;;;103.10;37.47;;;;;;;;;;6096999;23;20226;-69
2021/12/29 09:29:06;;;;;;;98.43;37.60;;;;;;;;;;6096437;23;20207;-69
2021/12/29 09:31:34;;;;;;;70.30;33.83;;;;;;;;;;6095781;23;20214;-70
2021/12/29 09:34:01;;;;;;;64.17;30.90;;;;;;;;;;6095277;23;20219;-70
2021/12/29 09:36:29;;;;;;;63.87;30.93;;;;;;;;;;6097032;23;20520;-69
2021/12/29 09:38:56;;;;;;;74.23;33.30;;;;;;;;;;6096605;23;20286;-69
2021/12/29 09:41:23;;;;;;;71.90;31.83;;;;;;;;;;6096733;23;20203;-68
2021/12/29 09:43:50;;;;;;;68.10;30.87;;;;;;;;;;6096566;23;20237;-68
2021/12/29 09:46:17;;;;;;;65.90;29.60;;;;;;;;;;6096357;23;20262;-68
2021/12/29 09:48:45;;;;;;;125.33;62.00;;;;;;;;;;6096965;23;20524;-68
2021/12/29 09:51:13;;;;;;;250.97;124.40;;;;;;;;;;6096529;23;20317;-69
2021/12/29 09:53:40;;;;;;;442.53;226.97;;;;;;;;;;6096780;23;20222;-69
2021/12/29 09:56:10;;;;;;;534.40;298.90;;;;;;;;;;6096015;23;20221;-68
2021/12/29 09:58:38;;;;;;;355.20;143.73;;;;;;;;;;6096504;23;20207;-68
2021/12/29 10:01:07;;;;;;;323.83;125.70;;;;;;;;;;6096010;23;20714;-68
2021/12/29 10:03:35;;;;;;;156.40;61.80;;;;;;;;;;6096581;23;20258;-68
2021/12/29 10:06:06;;;;;;;282.93;106.73;;;;;;;;;;6096166;23;20691;-68
2021/12/29 10:08:35;;;;;;;349.77;121.87;;;;;;;;;;6098671;23;20211;-68
2021/12/29 10:11:10;;;;;;;283.97;112.43;;;;;;;;;;6097052;23;20207;-68
2021/12/29 10:13:41;;;;;;;149.67;66.27;;;;;;;;;;6094514;23;20275;-68
2021/12/29 10:16:15;;;;;;;96.27;46.17;;;;;;;;;;6096440;23;20261;-68
2021/12/29 10:18:43;;;;;;;141.03;62.87;;;;;;;;;;6096140;23;20750;-68
2021/12/29 10:21:14;;;;;;;143.30;66.23;;;;;;;;;;6096425;23;20214;-68
2021/12/29 10:23:46;;;;;;;120.77;56.73;;;;;;;;;;6095929;23;20266;-68
2021/12/29 10:26:36;;;;;;;132.10;48.67;;;;;;;;;;6096434;23;20222;-68
2021/12/29 10:29:08;;;;;;;257.97;95.43;;;;;;;;;;6095431;23;20215;-68
2021/12/29 10:31:40;;;;;;;59.37;30.77;;;;;;;;;;6098669;23;20602;-68
2021/12/29 10:34:13;;;;;;;54.07;29.83;;;;;;;;;;6095906;23;20219;-69
2021/12/29 10:36:43;;;;;;;108.20;48.00;;;;;;;;;;6096410;23;20211;-69
2021/12/29 10:39:24;;;;;;;79.70;35.70;;;;;;;;;;6096054;23;20206;-68
2021/12/29 10:42:01;;;;;;;63.07;29.50;;;;;;;;;;6095782;23;20654;-68
2021/12/29 10:44:49;;;;;;;62.00;30.20;;;;;;;;;;6094011;23;20328;-68
2021/12/29 10:47:21;;;;;;;61.70;28.93;;;;;;;;;;6096098;23;20253;-67
2021/12/29 10:49:57;;;;;;;64.70;29.73;;;;;;;;;;6095219;23;20729;-69
2021/12/29 10:52:35;;;;;;;65.47;30.57;;;;;;;;;;6072964;23;20233;-71
2021/12/29 10:55:09;;;;;;;66.23;35.93;;;;;;;;;;6092845;23;20586;-69
2021/12/29 10:57:37;;;;;;;165.17;48.20;;;;;;;;;;6096424;23;20225;-69
2021/12/29 11:00:08;;;;;;;204.07;63.07;;;;;;;;;;6094548;23;20210;-69
2021/12/29 11:02:36;;;;;;;59.30;31.10;;;;;;;;;;6096596;23;20213;-69
2021/12/29 11:05:08;;;;;;;78.43;41.17;;;;;;;;;;6096530;23;20234;-69
2021/12/29 11:07:36;;;;;;;65.07;33.73;;;;;;;;;;6106949;23;20556;-68
2021/12/29 11:10:20;;;;;;;86.50;35.13;;;;;;;;;;6097123;23;20601;-68
2021/12/29 11:12:51;;;;;;;65.27;28.53;;;;;;;;;;6106653;23;20230;-73
2021/12/29 11:15:22;;;;;;;62.27;30.43;;;;;;;;;;6095828;23;20199;-68
2021/12/29 11:17:50;;;;;;;59.57;28.53;;;;;;;;;;6091021;23;20175;-70
2021/12/29 11:20:27;;;;;;;63.03;28.63;;;;;;;;;;6096409;23;20206;-69
2021/12/29 11:23:08;;;;;;;65.93;28.77;;;;;;;;;;6095581;23;20653;-70
2021/12/29 11:25:36;;;;;;;67.03;35.27;;;;;;;;;;6098312;23;20237;-69
2021/12/29 11:28:04;;;;;;;128.00;44.90;;;;;;;;;;6095670;23;20213;-68
2021/12/29 11:30:31;;;;;;;150.57;54.07;;;;;;;;;;6096276;23;20544;-66
2021/12/29 11:33:10;;;;;;;61.87;30.77;;;;;;;;;;6095238;23;20206;-68
2021/12/29 11:35:50;;;;;;;70.60;37.50;;;;;;;;;;6096651;23;20349;-68
2021/12/29 11:38:18;;;;;;;73.83;33.57;;;;;;;;;;6098444;23;20676;-68
2021/12/29 11:40:49;;;;;;;67.00;31.70;;;;;;;;;;6099292;23;20189;-72
2021/12/29 11:43:18;;;;;;;65.40;30.80;;;;;;;;;;6107269;23;20665;-68
2021/12/29 11:45:49;;;;;;;73.20;32.70;;;;;;;;;;6098819;23;20230;-67
2021/12/29 11:48:20;;;;;;;67.90;31.30;;;;;;;;;;6098789;23;20571;-67
2021/12/29 11:50:56;;;;;;;65.80;30.40;;;;;;;;;;6108607;23;20673;-69
2021/12/29 11:53:31;;;;;;;80.33;33.37;;;;;;;;;;6096688;23;20178;-68
2021/12/29 11:56:03;;;;;;;76.33;36.97;;;;;;;;;;6095531;23;20230;-68
2021/12/29 11:58:32;;;;;;;133.13;44.10;;;;;;;;;;6098564;23;20202;-68
2021/12/29 12:01:23;;;;;;;118.73;44.97;;;;;;;;;;6098643;23;20190;-68
2021/12/29 12:03:53;;;;;;;61.37;28.97;;;;;;;;;;6092551;23;20261;-68
2021/12/29 12:06:29;;;;;;;71.23;35.83;;;;;;;;;;6098321;23;20196;-68
2021/12/29 12:09:13;;;;;;;101.43;38.93;;;;;;;;;;6098689;23;20245;-68
2021/12/29 12:11:49;;;;;;;71.73;32.53;;;;;;;;;;6098414;23;20167;-66
2021/12/29 12:14:30;;;;;;;67.40;30.53;;;;;;;;;;6107994;23;20712;-68
2021/12/29 12:17:09;;;;;;;54.90;27.27;;;;;;;;;;6096918;23;20250;-68
2021/12/29 12:19:38;;;;;;;60.50;26.33;;;;;;;;;;6097883;23;20186;-67
2021/12/29 12:22:13;;;;;;;54.93;25.90;;;;;;;;;;6097851;23;20194;-68
2021/12/29 12:24:54;;;;;;;58.83;28.97;;;;;;;;;;6098496;23;20544;-68
2021/12/29 12:27:32;;;;;;;129.40;48.73;;;;;;;;;;6098602;23;20175;-68
2021/12/29 12:30:10;;;;;;;107.10;38.57;;;;;;;;;;6107859;23;20498;-68
2021/12/29 12:32:50;;;;;;;141.07;61.00;;;;;;;;;;6091520;23;20245;-68
2021/12/29 12:35:35;;;;;;;56.40;29.20;;;;;;;;;;6097312;23;20373;-68
2021/12/29 12:38:16;;;;;;;76.47;35.97;;;;;;;;;;6096976;23;20688;-67
2021/12/29 12:40:59;;;;;;;74.83;34.67;;;;;;;;;;6097272;23;20206;-68
2021/12/29 12:43:26;;;;;;;76.93;32.27;;;;;;;;;;6096265;23;20725;-67
2021/12/29 12:45:53;;;;;;;64.23;30.47;;;;;;;;;;6096713;23;20685;-68
2021/12/29 12:48:26;;;;;;;59.80;29.93;;;;;;;;;;6096216;23;20211;-67
2021/12/29 12:50:54;;;;;;;59.90;28.13;;;;;;;;;;6099866;23;20729;-68
2021/12/29 12:53:33;;;;;;;59.37;28.07;;;;;;;;;;6096931;23;20207;-68
2021/12/29 12:56:02;;;;;;;72.87;38.80;;;;;;;;;;6098443;23;20222;-68
2021/12/29 12:58:38;;;;;;;240.73;99.63;;;;;;;;;;6096228;23;20182;-67
2021/12/29 13:01:08;;;;;;;172.17;49.20;;;;;;;;;;6096357;23;20193;-67
2021/12/29 13:03:36;;;;;;;93.43;37.77;;;;;;;;;;6106295;23;20246;-67
2021/12/29 13:06:04;;;;;;;73.00;39.37;;;;;;;;;;6097724;23;20183;-67
2021/12/29 13:08:37;;;;;;;65.60;31.23;;;;;;;;;;6097415;23;20575;-67
2021/12/29 13:11:21;;;;;;;73.13;35.23;;;;;;;;;;6105767;23;20242;-67
2021/12/29 13:13:51;;;;;;;127.33;45.63;;;;;;;;;;6096931;23;20174;-67
2021/12/29 13:16:21;;;;;;;83.77;35.67;;;;;;;;;;6106840;23;20195;-68
2021/12/29 13:18:49;;;;;;;75.87;33.60;;;;;;;;;;6096912;23;20182;-68
2021/12/29 13:21:40;;;;;;;68.47;32.97;;;;;;;;;;6096873;23;20611;-68
2021/12/29 13:24:10;;;;;;;76.77;34.77;;;;;;;;;;6107299;23;20181;-68
2021/12/29 13:26:41;;;;;;;76.00;34.70;;;;;;;;;;6095978;23;20175;-68
2021/12/29 13:29:13;;;;;;;75.03;35.37;;;;;;;;;;6096910;23;20595;-67
2021/12/29 13:31:40;;;;;;;82.40;44.83;;;;;;;;;;6107080;23;20179;-67
2021/12/29 13:34:07;;;;;;;194.60;54.87;;;;;;;;;;6096356;23;20247;-67
2021/12/29 13:36:35;;;;;;;88.90;39.83;;;;;;;;;;6091597;23;20211;-73
2021/12/29 13:39:03;;;;;;;72.67;32.47;;;;;;;;;;6097139;23;20274;-66
2021/12/29 13:41:35;;;;;;;76.20;36.47;;;;;;;;;;6096827;23;20294;-65
2021/12/29 13:44:06;;;;;;;96.97;38.47;;;;;;;;;;6096577;23;20211;-66
2021/12/29 13:46:37;;;;;;;68.57;33.00;;;;;;;;;;6099191;23;20238;-68
2021/12/29 13:49:07;;;;;;;69.83;32.57;;;;;;;;;;6096057;23;20211;-67
2021/12/29 13:51:41;;;;;;;66.17;32.43;;;;;;;;;;6094717;23;20257;-68
2021/12/29 13:54:11;;;;;;;68.30;33.27;;;;;;;;;;6094844;23;20211;-68
2021/12/29 13:56:45;;;;;;;70.33;34.67;;;;;;;;;;6071450;23;20214;-68
2021/12/29 13:59:16;;;;;;;71.40;33.77;;;;;;;;;;6092740;23;20229;-67
2021/12/29 14:01:51;;;;;;;77.23;36.73;;;;;;;;;;6098142;23;20211;-69
2021/12/29 14:04:21;;;;;;;200.13;54.10;;;;;;;;;;6099884;23;20206;-69
2021/12/29 14:06:54;;;;;;;79.70;36.17;;;;;;;;;;6098033;23;20338;-68
2021/12/29 14:09:22;;;;;;;72.83;33.37;;;;;;;;;;6095140;23;20211;-67
2021/12/29 14:11:50;;;;;;;90.83;40.93;;;;;;;;;;6096518;23;20210;-68
2021/12/29 14:14:20;;;;;;;93.73;35.53;;;;;;;;;;6096144;23;20206;-68
2021/12/29 14:16:53;;;;;;;86.97;35.90;;;;;;;;;;6096530;23;20270;-68
2021/12/29 14:19:22;;;;;;;76.83;33.30;;;;;;;;;;6095958;23;20266;-67
2021/12/29 14:21:51;;;;;;;82.30;35.00;;;;;;;;;;6096347;23;20290;-68
2021/12/29 14:24:18;;;;;;;82.07;36.73;;;;;;;;;;6095673;23;20259;-67
2021/12/29 14:26:54;;;;;;;78.87;35.53;;;;;;;;;;6095525;23;20214;-69
2021/12/29 14:29:31;;;;;;;82.50;35.90;;;;;;;;;;6096393;23;20206;-73
2021/12/29 14:32:01;;;;;;;96.10;44.57;;;;;;;;;;6095382;23;20206;-69
2021/12/29 14:34:41;;;;;;;172.57;52.33;;;;;;;;;;6095881;23;20233;-70
2021/12/29 14:37:13;;;;;;;82.83;39.67;;;;;;;;;;6096198;23;20262;-72
2021/12/29 14:39:41;;;;;;;66.40;32.77;;;;;;;;;;6098399;23;20212;-71